createdAt,value
2019-01-08T00:02:28.985Z,8.50
2019-01-08T00:08:33.526Z,9.60
2019-01-08T00:14:38.089Z,8.90
2019-01-08T00:20:42.642Z,10.50
2019-01-08T00:26:47.194Z,10.47
2019-01-08T00:32:51.757Z,7.77
2019-01-08T00:38:56.309Z,7.80
2019-01-08T00:45:00.865Z,6.27
2019-01-08T00:51:05.419Z,5.37
2019-01-08T00:57:09.968Z,4.80
2019-01-08T01:03:14.618Z,4.27
2019-01-08T01:09:20.789Z,3.37
2019-01-08T01:15:25.343Z,3.67
2019-01-08T01:21:29.904Z,3.17
2019-01-08T01:27:34.487Z,4.63
2019-01-08T01:33:39.041Z,1.90
2019-01-08T01:39:43.593Z,1.70
2019-01-08T01:45:48.144Z,1.53
2019-01-08T01:51:52.687Z,1.63
2019-01-08T01:57:57.257Z,2.20
2019-01-08T02:04:01.894Z,2.30
2019-01-08T02:10:08.541Z,2.63
2019-01-08T02:16:13.088Z,2.87
2019-01-08T02:22:17.654Z,2.70
2019-01-08T02:28:22.213Z,2.90
2019-01-08T02:34:26.765Z,3.27
2019-01-08T02:40:31.363Z,2.63
2019-01-08T02:46:35.983Z,2.70
2019-01-08T02:52:40.622Z,2.30
2019-01-08T02:58:45.163Z,2.43
2019-01-08T03:04:49.722Z,3.20
2019-01-08T03:10:54.268Z,2.53
2019-01-08T03:16:58.805Z,1.70
2019-01-08T03:23:03.368Z,3.40
2019-01-08T03:29:07.913Z,2.17
2019-01-08T03:35:12.492Z,2.67
2019-01-08T03:41:17.106Z,1.60
2019-01-08T03:47:21.805Z,1.70
2019-01-08T03:53:26.364Z,1.90
2019-01-08T03:59:32.497Z,1.53
2019-01-08T04:05:37.061Z,1.70
2019-01-08T04:11:41.691Z,1.97
2019-01-08T04:17:46.238Z,2.40
2019-01-08T04:23:50.808Z,2.40
2019-01-08T04:29:55.349Z,2.07
2019-01-08T04:35:59.892Z,2.23
2019-01-08T04:42:04.462Z,1.40
2019-01-08T04:48:09.013Z,2.03
2019-01-08T04:54:13.574Z,1.73
2019-01-08T05:00:18.120Z,1.93
2019-01-08T05:06:22.670Z,1.97
2019-01-08T05:12:27.205Z,2.90
2019-01-08T05:18:31.767Z,2.53
2019-01-08T05:24:36.334Z,2.03
2019-01-08T05:30:40.902Z,3.33
2019-01-08T05:36:45.464Z,2.60
2019-01-08T05:42:50.019Z,3.37
2019-01-08T05:48:54.579Z,1.60
2019-01-08T05:54:59.155Z,1.87
2019-01-08T06:01:03.731Z,1.90
2019-01-08T06:07:08.270Z,1.40
2019-01-08T06:13:12.915Z,1.47
2019-01-08T06:19:17.467Z,1.50
2019-01-08T06:25:22.034Z,2.37
2019-01-08T06:31:26.585Z,1.70
2019-01-08T06:37:31.127Z,1.80
2019-01-08T06:43:35.783Z,1.97
2019-01-08T06:49:40.323Z,1.93
2019-01-08T06:55:44.889Z,1.43
2019-01-08T07:01:49.457Z,1.47
2019-01-08T07:07:54.040Z,2.13
2019-01-08T07:13:58.586Z,1.53
2019-01-08T07:20:03.264Z,1.93
2019-01-08T07:26:07.813Z,1.87
2019-01-08T07:32:12.373Z,2.13
2019-01-08T07:38:16.928Z,2.13
2019-01-08T07:44:21.479Z,1.57
2019-01-08T07:50:26.026Z,1.87
2019-01-08T07:56:30.664Z,1.80
2019-01-08T08:02:35.209Z,2.00
2019-01-08T08:08:39.758Z,2.77
2019-01-08T08:14:44.309Z,2.27
2019-01-08T08:20:48.848Z,3.77
2019-01-08T08:26:53.395Z,2.30
2019-01-08T08:32:57.942Z,1.80
2019-01-08T08:39:02.506Z,1.70
2019-01-08T08:45:08.595Z,1.73
2019-01-08T08:51:13.239Z,1.53
2019-01-08T08:57:17.797Z,1.63
2019-01-08T09:03:22.404Z,1.40
2019-01-08T09:09:26.970Z,1.07
2019-01-08T09:15:31.603Z,1.30
2019-01-08T09:21:36.146Z,2.03
2019-01-08T09:27:40.704Z,2.07
2019-01-08T09:33:45.238Z,1.77
2019-01-08T09:39:49.801Z,2.80
2019-01-08T09:45:54.420Z,1.93
2019-01-08T09:51:58.955Z,1.20
2019-01-08T09:58:03.639Z,1.53
2019-01-08T10:04:08.180Z,2.50
2019-01-08T10:10:12.807Z,1.50
2019-01-08T10:16:17.359Z,1.37
2019-01-08T10:22:22.113Z,3.00
2019-01-08T10:28:26.655Z,2.10
2019-01-08T10:34:31.198Z,1.23
2019-01-08T10:40:35.747Z,1.50
2019-01-08T10:46:40.286Z,1.30
2019-01-08T10:52:44.825Z,1.63
2019-01-08T10:58:49.375Z,1.27
2019-01-08T11:04:53.912Z,1.20
2019-01-08T11:10:58.533Z,1.00
2019-01-08T11:17:03.150Z,1.00
2019-01-08T11:23:07.698Z,1.40
2019-01-08T11:29:12.239Z,1.20
2019-01-08T11:35:16.786Z,1.60
2019-01-08T11:41:21.402Z,1.93
2019-01-08T11:47:25.963Z,1.30
2019-01-08T11:53:30.504Z,1.30
2019-01-08T11:59:35.043Z,1.50
2019-01-08T12:05:39.601Z,2.43
2019-01-08T12:11:44.142Z,0.90
2019-01-08T12:17:48.950Z,1.30
2019-01-08T12:23:53.496Z,1.00
2019-01-08T12:29:58.037Z,1.20
2019-01-08T12:36:02.591Z,1.30
2019-01-08T12:42:07.145Z,1.20
2019-01-08T12:48:11.691Z,1.53
2019-01-08T12:54:16.262Z,3.83
2019-01-08T13:00:20.880Z,4.33
2019-01-08T13:06:25.418Z,2.40
2019-01-08T13:12:29.983Z,4.30
2019-01-08T13:18:34.558Z,3.63
2019-01-08T13:24:39.110Z,1.90
2019-01-08T13:30:43.735Z,2.27
2019-01-08T13:36:48.282Z,2.60
2019-01-08T13:42:52.850Z,3.10
2019-01-08T13:48:57.398Z,2.00
2019-01-08T13:55:01.964Z,6.07
2019-01-08T14:01:06.571Z,4.00
2019-01-08T14:07:13.119Z,2.40
2019-01-08T14:13:17.466Z,3.80
2019-01-08T14:19:22.013Z,2.37
2019-01-08T14:25:26.575Z,2.60
2019-01-08T14:31:31.144Z,3.43
2019-01-08T14:37:36.580Z,2.80
2019-01-08T14:43:41.135Z,2.50
2019-01-08T14:49:45.700Z,1.93
2019-01-08T14:55:51.025Z,2.80
2019-01-08T15:01:55.568Z,5.20
2019-01-08T15:08:00.186Z,3.43
2019-01-08T15:14:04.813Z,2.23
2019-01-08T15:20:09.532Z,3.10
2019-01-08T15:26:14.112Z,3.40
2019-01-08T15:32:18.814Z,3.23
2019-01-08T15:38:23.357Z,2.33
2019-01-08T15:44:27.975Z,2.50
2019-01-08T15:50:32.516Z,1.60
2019-01-08T15:56:37.064Z,3.57
2019-01-08T16:02:41.690Z,3.90
2019-01-08T16:08:46.238Z,2.90
2019-01-08T16:14:50.800Z,3.10
2019-01-08T16:20:55.362Z,6.73
2019-01-08T16:27:00.201Z,2.90
2019-01-08T16:33:04.832Z,3.70
2019-01-08T16:39:09.646Z,2.50
2019-01-08T16:45:14.285Z,2.63
2019-01-08T16:51:18.906Z,3.50
2019-01-08T16:57:23.461Z,3.23
2019-01-08T17:03:28.030Z,2.90
2019-01-08T17:09:32.576Z,3.40
2019-01-08T17:15:37.200Z,2.20
2019-01-08T17:21:41.741Z,2.70
2019-01-08T17:27:46.291Z,3.07
2019-01-08T17:33:50.915Z,3.97
2019-01-08T17:39:55.478Z,3.60
2019-01-08T17:46:00.034Z,2.67
2019-01-08T17:52:04.580Z,2.33
2019-01-08T17:58:38.962Z,1.93
2019-01-08T18:04:43.509Z,2.50
2019-01-08T18:10:49.192Z,2.30
2019-01-08T18:16:56.381Z,2.20
2019-01-08T18:23:00.929Z,4.70
2019-01-08T18:29:05.614Z,2.77
2019-01-08T18:35:10.316Z,4.80
2019-01-08T18:41:14.855Z,3.37
2019-01-08T18:47:19.411Z,1.70
2019-01-08T18:53:23.996Z,5.20
2019-01-08T18:59:28.535Z,1.50
2019-01-08T19:05:34.527Z,1.30
2019-01-08T19:11:39.184Z,2.40
2019-01-08T19:17:43.736Z,2.57
2019-01-08T19:23:48.289Z,2.27
2019-01-08T19:29:52.847Z,1.40
2019-01-08T19:35:57.387Z,1.97
2019-01-08T19:42:02.196Z,2.67
2019-01-08T19:48:06.812Z,1.63
2019-01-08T19:54:11.449Z,2.87
2019-01-08T20:00:16.203Z,3.70
2019-01-08T20:06:21.037Z,2.70
2019-01-08T20:12:25.593Z,3.33
2019-01-08T20:18:30.145Z,2.00
2019-01-08T20:24:34.700Z,1.93
2019-01-08T20:30:39.253Z,1.50
2019-01-08T20:36:43.815Z,1.40
2019-01-08T20:42:48.348Z,1.40
2019-01-08T20:48:52.957Z,2.00
2019-01-08T20:54:57.581Z,2.07
2019-01-08T21:01:02.134Z,1.97
2019-01-08T21:07:06.689Z,2.30
2019-01-08T21:13:11.235Z,1.87
2019-01-08T21:19:15.815Z,2.00
2019-01-08T21:25:20.437Z,1.63
2019-01-08T21:31:24.967Z,2.40
2019-01-08T21:37:29.522Z,1.43
2019-01-08T21:43:34.082Z,2.43
2019-01-08T21:49:38.658Z,1.40
2019-01-08T21:55:43.204Z,1.10
2019-01-08T22:01:47.817Z,1.30
2019-01-08T22:07:52.439Z,1.67
2019-01-08T22:13:57.114Z,2.77
2019-01-08T22:20:01.660Z,1.93
2019-01-08T22:26:06.196Z,1.30
2019-01-08T22:32:10.748Z,1.90
2019-01-08T22:38:15.344Z,2.80
2019-01-08T22:44:19.910Z,1.80
2019-01-08T22:50:24.432Z,1.47
2019-01-08T22:56:28.985Z,2.77
2019-01-08T23:02:33.666Z,1.90
2019-01-08T23:08:38.243Z,2.53
2019-01-08T23:14:42.806Z,1.40
2019-01-08T23:20:47.421Z,1.57
2019-01-08T23:26:51.974Z,1.17
2019-01-08T23:32:56.536Z,1.50
2019-01-08T23:39:01.166Z,1.80
2019-01-08T23:45:07.948Z,2.00
2019-01-08T23:51:12.573Z,2.20
2019-01-08T23:57:18.420Z,2.37
